createdAt,value
2022-11-28T00:00:00.819Z,1.95
2022-11-28T00:02:29.065Z,1.77
2022-11-28T00:04:57.334Z,2.00
2022-11-28T00:07:25.917Z,1.70
2022-11-28T00:09:54.350Z,1.23
2022-11-28T00:12:40.935Z,1.27
2022-11-28T00:15:11.812Z,1.85
2022-11-28T00:17:40.249Z,1.58
2022-11-28T00:20:08.809Z,1.38
2022-11-28T00:22:37.010Z,1.40
2022-11-28T00:25:05.363Z,1.50
2022-11-28T00:27:51.905Z,1.30
2022-11-28T00:30:20.242Z,1.25
2022-11-28T00:32:48.391Z,1.33
2022-11-28T00:35:35.057Z,1.27
2022-11-28T00:38:03.258Z,1.08
2022-11-28T00:40:31.466Z,0.98
2022-11-28T00:42:59.581Z,0.93
2022-11-28T00:45:28.023Z,1.90
2022-11-28T00:47:56.232Z,1.13
2022-11-28T00:50:24.635Z,0.98
2022-11-28T00:53:11.073Z,1.00
2022-11-28T00:55:58.725Z,0.85
2022-11-28T00:58:26.975Z,0.88
2022-11-28T01:00:55.098Z,1.25
2022-11-28T01:03:42.443Z,1.52
2022-11-28T01:06:49.051Z,1.05
2022-11-28T01:09:21.582Z,0.80
2022-11-28T01:11:51.374Z,1.08
2022-11-28T01:14:24.523Z,1.08
2022-11-28T01:17:11.101Z,1.92
2022-11-28T01:19:39.268Z,0.75
2022-11-28T01:22:07.494Z,1.08
2022-11-28T01:24:54.197Z,0.70
2022-11-28T01:27:40.897Z,0.38
2022-11-28T01:30:09.393Z,0.35
2022-11-28T01:32:37.572Z,0.63
2022-11-28T01:35:06.076Z,0.98
2022-11-28T01:37:34.112Z,0.30
2022-11-28T01:40:02.262Z,0.60
2022-11-28T01:42:31.005Z,0.70
2022-11-28T01:45:07.392Z,0.40
2022-11-28T01:47:36.066Z,0.50
2022-11-28T01:50:05.947Z,0.40
2022-11-28T01:52:35.475Z,0.45
2022-11-28T01:55:04.640Z,0.30
2022-11-28T01:57:33.192Z,0.45
2022-11-28T02:00:31.146Z,0.40
2022-11-28T02:03:28.082Z,0.30
2022-11-28T02:06:15.860Z,0.40
2022-11-28T02:08:44.044Z,0.50
2022-11-28T02:11:33.875Z,0.60
2022-11-28T02:14:20.968Z,0.63
2022-11-28T02:17:10.698Z,0.60
2022-11-28T02:19:57.533Z,0.70
2022-11-28T02:23:04.654Z,0.40
2022-11-28T02:25:54.565Z,0.60
2022-11-28T02:28:56.766Z,0.95
2022-11-28T02:31:38.397Z,0.80
2022-11-28T02:37:34.458Z,0.50
2022-11-28T02:40:19.715Z,0.60
2022-11-28T02:42:55.277Z,0.57
2022-11-28T02:46:04.970Z,0.50
2022-11-28T02:48:44.277Z,0.60
2022-11-28T02:51:38.886Z,0.57
2022-11-28T02:54:11.290Z,0.60
2022-11-28T02:56:39.710Z,0.98
2022-11-28T02:59:34.661Z,0.47
2022-11-28T03:02:29.498Z,0.40
2022-11-28T03:05:08.407Z,0.38
2022-11-28T03:07:47.136Z,0.43
2022-11-28T03:11:01.149Z,0.38
2022-11-28T03:13:54.005Z,0.25
2022-11-28T03:16:39.864Z,0.30
2022-11-28T03:19:32.619Z,0.30
2022-11-28T03:22:19.239Z,0.25
2022-11-28T03:24:51.250Z,0.40
2022-11-28T03:27:28.481Z,0.50
2022-11-28T03:30:04.043Z,0.30
2022-11-28T03:32:36.465Z,0.40
2022-11-28T03:35:14.422Z,0.40
2022-11-28T03:38:09.412Z,0.40
2022-11-28T03:40:44.147Z,0.28
2022-11-28T03:43:17.393Z,0.30
2022-11-28T03:45:52.401Z,0.50
2022-11-28T03:48:27.451Z,0.30
2022-11-28T03:51:04.962Z,0.20
2022-11-28T03:54:00.152Z,1.20
2022-11-28T03:56:58.341Z,0.40
2022-11-28T03:59:34.960Z,0.40
2022-11-28T04:02:20.254Z,0.30
2022-11-28T04:05:29.897Z,0.28
2022-11-28T04:08:22.286Z,0.30
2022-11-28T04:10:56.799Z,0.30
2022-11-28T04:13:33.458Z,0.20
2022-11-28T04:19:00.301Z,0.40
2022-11-28T04:21:33.885Z,0.30
2022-11-28T04:24:09.958Z,1.65
2022-11-28T04:26:44.182Z,2.58
2022-11-28T04:29:15.876Z,3.08
2022-11-28T04:32:04.013Z,2.25
2022-11-28T04:34:55.673Z,2.15
2022-11-28T04:37:27.880Z,2.35
2022-11-28T04:40:15.360Z,1.63
2022-11-28T04:42:52.832Z,1.90
2022-11-28T04:45:24.209Z,1.65
2022-11-28T04:47:52.449Z,1.80
2022-11-28T04:50:24.021Z,2.00
2022-11-28T04:52:56.566Z,2.38
2022-11-28T04:55:42.380Z,2.28
2022-11-28T04:58:25.174Z,2.35
2022-11-28T05:00:55.819Z,1.88
2022-11-28T05:03:28.408Z,1.80
2022-11-28T05:05:56.819Z,1.48
2022-11-28T05:08:25.566Z,2.30
2022-11-28T05:10:53.698Z,1.65
2022-11-28T05:13:21.848Z,0.98
2022-11-28T05:15:49.977Z,1.02
2022-11-28T05:18:36.630Z,1.20
2022-11-28T05:21:08.509Z,1.50
2022-11-28T05:23:38.439Z,1.95
2022-11-28T05:26:08.345Z,0.77
2022-11-28T05:28:36.712Z,1.08
2022-11-28T05:31:05.539Z,1.00
2022-11-28T05:33:33.783Z,0.68
2022-11-28T05:36:12.387Z,0.90
2022-11-28T05:38:42.137Z,0.60
2022-11-28T05:41:18.581Z,1.08
2022-11-28T05:43:46.696Z,0.40
2022-11-28T05:46:14.845Z,1.13
2022-11-28T05:48:42.929Z,0.70
2022-11-28T05:51:11.537Z,0.93
2022-11-28T05:53:39.758Z,0.40
2022-11-28T05:56:15.870Z,0.90
2022-11-28T05:58:44.396Z,0.60
2022-11-28T06:01:21.981Z,0.45
2022-11-28T06:03:50.095Z,0.43
2022-11-28T06:06:20.621Z,0.60
2022-11-28T06:08:50.124Z,0.43
2022-11-28T06:11:19.286Z,0.45
2022-11-28T06:13:48.461Z,0.50
2022-11-28T06:16:22.141Z,1.08
2022-11-28T06:18:55.042Z,0.30
2022-11-28T06:21:23.968Z,0.35
2022-11-28T06:23:52.258Z,0.25
2022-11-28T06:26:22.488Z,0.25
2022-11-28T06:28:50.808Z,0.30
2022-11-28T06:31:21.325Z,0.50
2022-11-28T06:36:35.577Z,0.40
2022-11-28T06:39:04.048Z,0.22
2022-11-28T06:41:32.118Z,0.57
2022-11-28T06:44:00.206Z,0.40
2022-11-28T06:46:28.343Z,0.30
2022-11-28T06:49:14.793Z,0.20
2022-11-28T06:51:43.247Z,0.45
2022-11-28T06:54:11.472Z,0.20
2022-11-28T06:56:40.835Z,0.47
2022-11-28T06:59:11.992Z,0.40
2022-11-28T07:01:40.057Z,0.52
2022-11-28T07:04:08.213Z,0.60
2022-11-28T07:06:36.262Z,0.30
2022-11-28T07:09:04.458Z,0.75
2022-11-28T07:11:33.143Z,0.30
2022-11-28T07:14:02.970Z,0.55
2022-11-28T07:16:32.729Z,0.32
2022-11-28T07:19:19.700Z,0.60
2022-11-28T07:21:47.639Z,0.75
2022-11-28T07:24:15.601Z,0.50
2022-11-28T07:26:43.483Z,0.40
2022-11-28T07:29:15.474Z,0.40
2022-11-28T07:32:03.277Z,0.70
2022-11-28T07:34:31.478Z,0.80
2022-11-28T07:36:59.489Z,0.50
2022-11-28T07:39:27.788Z,0.30
2022-11-28T07:44:40.918Z,0.82
2022-11-28T07:49:54.602Z,0.77
2022-11-28T07:55:08.405Z,0.68
2022-11-28T07:57:36.360Z,0.68
2022-11-28T08:00:04.990Z,0.68
2022-11-28T08:02:40.271Z,0.55
2022-11-28T08:05:08.671Z,0.40
2022-11-28T08:07:36.779Z,0.32
2022-11-28T08:10:06.696Z,0.28
2022-11-28T08:12:34.736Z,0.17
2022-11-28T08:15:02.792Z,0.30
2022-11-28T08:17:30.879Z,1.30
2022-11-28T08:19:58.857Z,0.60
2022-11-28T08:22:27.274Z,0.40
2022-11-28T08:24:55.168Z,0.32
2022-11-28T08:27:23.240Z,0.70
2022-11-28T08:29:53.525Z,0.30
2022-11-28T08:32:21.993Z,0.30
2022-11-28T08:34:49.959Z,0.30
2022-11-28T08:37:18.006Z,0.40
2022-11-28T08:39:45.922Z,0.50
2022-11-28T08:45:18.344Z,1.30
2022-11-28T08:47:46.347Z,1.23
2022-11-28T08:50:14.317Z,1.35
2022-11-28T08:52:42.349Z,1.02
2022-11-28T08:55:10.817Z,1.13
2022-11-28T08:57:38.883Z,1.00
2022-11-28T09:00:08.107Z,1.27
2022-11-28T09:02:36.118Z,1.23
2022-11-28T09:05:04.308Z,1.25
2022-11-28T09:07:32.464Z,1.67
2022-11-28T09:10:00.495Z,1.65
2022-11-28T09:12:28.539Z,1.63
2022-11-28T09:14:56.563Z,1.60
2022-11-28T09:17:43.075Z,2.00
2022-11-28T09:20:11.666Z,1.80
2022-11-28T09:22:39.624Z,2.05
2022-11-28T09:25:08.432Z,2.05
2022-11-28T09:27:36.503Z,2.50
2022-11-28T09:30:05.322Z,2.10
2022-11-28T09:32:33.584Z,2.50
2022-11-28T09:35:01.683Z,2.40
2022-11-28T09:37:29.979Z,2.47
2022-11-28T09:40:12.751Z,2.22
2022-11-28T09:42:44.517Z,3.08
2022-11-28T09:45:33.439Z,2.85
2022-11-28T09:48:33.802Z,2.53
2022-11-28T09:51:29.549Z,2.10
2022-11-28T09:54:22.043Z,1.92
2022-11-28T09:56:50.940Z,2.47
2022-11-28T09:59:26.470Z,2.50
2022-11-28T10:02:19.085Z,2.00
2022-11-28T10:05:05.732Z,2.42
2022-11-28T10:08:01.616Z,2.60
2022-11-28T10:10:38.380Z,1.77
2022-11-28T10:14:06.139Z,2.17
2022-11-28T10:16:43.263Z,2.03
2022-11-28T10:19:52.219Z,2.30
2022-11-28T10:22:16.723Z,1.88
2022-11-28T10:25:37.092Z,2.42
2022-11-28T10:28:20.059Z,1.70
2022-11-28T10:31:15.008Z,1.83
2022-11-28T10:33:55.397Z,1.80
2022-11-28T10:36:31.135Z,1.90
2022-11-28T10:39:09.896Z,1.98
2022-11-28T10:42:11.888Z,2.35
2022-11-28T10:44:57.096Z,2.03
2022-11-28T10:47:37.013Z,1.85
2022-11-28T10:50:20.192Z,2.00
2022-11-28T10:52:54.995Z,1.58
2022-11-28T10:55:46.103Z,1.90
2022-11-28T10:58:16.872Z,1.77
2022-11-28T11:01:04.045Z,1.95
2022-11-28T11:03:36.161Z,1.98
2022-11-28T11:06:04.612Z,2.00
2022-11-28T11:08:38.174Z,2.17
2022-11-28T11:11:25.794Z,2.95
2022-11-28T11:16:55.843Z,3.10
2022-11-28T11:19:25.117Z,2.80
2022-11-28T11:22:13.360Z,2.90
2022-11-28T11:24:41.465Z,2.55
2022-11-28T11:27:20.019Z,2.45
2022-11-28T11:29:51.463Z,2.60
2022-11-28T11:32:25.416Z,2.75
2022-11-28T11:34:55.772Z,2.33
2022-11-28T11:37:23.652Z,1.90
2022-11-28T11:39:53.614Z,1.85
2022-11-28T11:42:24.815Z,2.50
2022-11-28T11:44:53.432Z,2.72
2022-11-28T11:47:40.946Z,2.42
2022-11-28T11:50:21.697Z,2.28
2022-11-28T11:53:08.001Z,2.17
2022-11-28T11:55:59.438Z,2.40
2022-11-28T11:58:35.400Z,2.33
2022-11-28T12:01:04.242Z,2.15
2022-11-28T12:03:57.189Z,3.13
2022-11-28T12:06:30.950Z,2.08
2022-11-28T12:09:23.767Z,2.20
2022-11-28T12:11:56.961Z,2.55
2022-11-28T12:14:31.748Z,2.58
2022-11-28T12:17:40.403Z,2.03
2022-11-28T12:20:36.874Z,2.40
2022-11-28T12:23:41.412Z,2.15
2022-11-28T12:26:21.303Z,2.63
2022-11-28T12:29:25.268Z,1.77
2022-11-28T12:32:11.561Z,2.20
2022-11-28T12:34:57.900Z,2.53
2022-11-28T12:38:10.316Z,2.67
2022-11-28T12:40:55.652Z,1.90
2022-11-28T12:43:51.062Z,1.73
2022-11-28T12:46:40.349Z,2.50
2022-11-28T12:49:23.542Z,2.47
2022-11-28T12:52:15.723Z,1.90
2022-11-28T12:55:09.171Z,2.92
2022-11-28T12:58:31.391Z,2.03
2022-11-28T13:01:20.812Z,1.83
2022-11-28T13:04:16.633Z,2.17
2022-11-28T13:07:07.439Z,1.90
2022-11-28T13:09:38.911Z,1.75
2022-11-28T13:12:40.296Z,2.05
2022-11-28T13:15:21.704Z,1.85
2022-11-28T13:18:30.711Z,2.25
2022-11-28T13:21:08.964Z,1.90
2022-11-28T13:23:51.627Z,2.30
2022-11-28T13:26:22.901Z,2.00
2022-11-28T13:31:40.382Z,2.20
2022-11-28T13:34:16.250Z,1.63
2022-11-28T13:43:19.689Z,1.73
2022-11-28T13:45:48.257Z,1.95
2022-11-28T13:49:06.171Z,2.17
2022-11-28T13:51:30.938Z,2.15
2022-11-28T13:54:18.446Z,1.98
2022-11-28T13:59:35.130Z,2.10
2022-11-28T14:05:41.753Z,2.38
2022-11-28T14:08:28.707Z,2.20
2022-11-28T14:10:56.808Z,2.03
2022-11-28T14:13:30.930Z,1.88
2022-11-28T14:16:23.371Z,1.85
2022-11-28T14:18:57.951Z,2.30
2022-11-28T14:21:41.270Z,1.95
2022-11-28T14:24:55.004Z,1.85
2022-11-28T14:27:30.446Z,1.98
2022-11-28T14:30:00.489Z,3.58
2022-11-28T14:32:42.329Z,2.05
2022-11-28T14:35:51.059Z,1.70
2022-11-28T14:38:31.773Z,2.03
2022-11-28T14:41:12.055Z,1.80
2022-11-28T14:43:41.573Z,1.75
2022-11-28T14:46:15.980Z,1.88
2022-11-28T14:48:59.276Z,1.70
2022-11-28T14:51:48.670Z,1.92
2022-11-28T14:54:57.728Z,1.70
2022-11-28T14:57:29.361Z,1.88
2022-11-28T15:00:00.303Z,1.75
2022-11-28T15:02:47.105Z,2.20
2022-11-28T15:05:24.274Z,1.88
2022-11-28T15:08:16.217Z,2.40
2022-11-28T15:10:58.605Z,1.63
2022-11-28T15:13:52.339Z,2.30
2022-11-28T15:16:22.957Z,2.25
2022-11-28T15:18:58.739Z,1.63
2022-11-28T15:21:26.850Z,2.33
2022-11-28T15:23:56.000Z,2.30
2022-11-28T15:26:29.815Z,2.35
2022-11-28T15:29:19.904Z,3.47
2022-11-28T15:31:52.027Z,2.03
2022-11-28T15:34:31.189Z,3.40
2022-11-28T15:37:07.470Z,2.63
2022-11-28T15:39:53.937Z,3.22
2022-11-28T15:42:34.287Z,3.35
2022-11-28T15:45:24.392Z,2.47
2022-11-28T15:47:53.772Z,2.90
2022-11-28T15:50:25.439Z,3.20
2022-11-28T15:52:58.924Z,2.65
2022-11-28T15:55:30.908Z,2.10
2022-11-28T15:58:23.727Z,1.75
2022-11-28T16:01:00.286Z,1.52
2022-11-28T16:03:32.517Z,1.83
2022-11-28T16:06:01.270Z,1.92
2022-11-28T16:08:36.935Z,1.85
2022-11-28T16:11:07.776Z,2.42
2022-11-28T16:13:39.384Z,1.88
2022-11-28T16:16:33.492Z,1.65
2022-11-28T16:19:08.733Z,1.80
2022-11-28T16:21:50.147Z,1.73
2022-11-28T16:24:42.151Z,1.92
2022-11-28T16:27:33.389Z,1.70
2022-11-28T16:30:03.000Z,1.23
2022-11-28T16:32:40.256Z,1.98
2022-11-28T16:35:12.928Z,1.63
2022-11-28T16:37:41.018Z,1.50
2022-11-28T16:40:23.716Z,1.80
2022-11-28T16:42:56.808Z,1.30
2022-11-28T16:45:28.439Z,1.77
2022-11-28T16:48:19.421Z,2.28
2022-11-28T16:51:28.154Z,2.08
2022-11-28T16:54:00.477Z,1.90
2022-11-28T16:56:31.888Z,1.73
2022-11-28T16:59:16.848Z,1.60
2022-11-28T17:01:52.247Z,1.50
2022-11-28T17:04:28.662Z,2.17
2022-11-28T17:07:05.964Z,2.67
2022-11-28T17:09:34.235Z,4.65
2022-11-28T17:12:07.377Z,2.17
2022-11-28T17:14:35.666Z,3.15
2022-11-28T17:17:12.549Z,2.10
2022-11-28T17:19:41.144Z,2.60
2022-11-28T17:22:13.964Z,2.35
2022-11-28T17:24:42.760Z,1.80
2022-11-28T17:27:13.407Z,2.03
2022-11-28T17:29:41.763Z,2.10
2022-11-28T17:32:14.518Z,2.30
2022-11-28T17:35:04.215Z,2.22
2022-11-28T17:37:32.297Z,2.10
2022-11-28T17:40:18.975Z,1.75
2022-11-28T17:42:47.005Z,2.35
2022-11-28T17:45:15.505Z,2.00
2022-11-28T17:47:44.431Z,1.52
2022-11-28T17:50:12.540Z,1.70
2022-11-28T17:52:40.719Z,2.95
2022-11-28T17:55:08.953Z,2.20
2022-11-28T17:57:37.329Z,2.47
2022-11-28T18:00:10.245Z,2.50
2022-11-28T18:02:45.945Z,3.63
2022-11-28T18:05:14.453Z,3.35
2022-11-28T18:07:42.674Z,2.30
2022-11-28T18:10:12.826Z,4.00
2022-11-28T18:12:59.563Z,4.25
2022-11-28T18:15:28.187Z,4.80
2022-11-28T18:17:56.368Z,3.70
2022-11-28T18:20:28.811Z,4.53
2022-11-28T18:23:15.513Z,2.20
2022-11-28T18:25:44.706Z,2.05
2022-11-28T18:28:18.800Z,1.88
2022-11-28T18:30:48.097Z,2.50
2022-11-28T18:33:17.275Z,2.90
2022-11-28T18:35:45.429Z,3.28
2022-11-28T18:38:13.524Z,2.58
2022-11-28T18:40:42.096Z,2.67
2022-11-28T18:43:10.077Z,4.13
2022-11-28T18:45:38.204Z,2.38
2022-11-28T18:48:06.801Z,2.63
2022-11-28T18:50:35.372Z,3.13
2022-11-28T18:53:03.589Z,2.85
2022-11-28T18:55:31.768Z,2.13
2022-11-28T18:58:00.341Z,2.65
2022-11-28T19:00:28.814Z,2.28
2022-11-28T19:02:56.825Z,3.13
2022-11-28T19:05:24.998Z,3.00
2022-11-28T19:07:53.688Z,2.65
2022-11-28T19:10:21.869Z,3.30
2022-11-28T19:12:50.316Z,2.58
2022-11-28T19:18:04.050Z,2.88
2022-11-28T19:20:32.154Z,2.10
2022-11-28T19:23:00.114Z,2.58
2022-11-28T19:25:28.195Z,2.42
2022-11-28T19:27:56.926Z,2.45
2022-11-28T19:30:24.928Z,2.13
2022-11-28T19:32:53.026Z,3.22
2022-11-28T19:35:21.222Z,2.35
2022-11-28T19:37:49.316Z,2.47
2022-11-28T19:40:17.605Z,1.95
2022-11-28T19:43:04.289Z,2.65
2022-11-28T19:45:32.412Z,2.28
2022-11-28T19:48:01.957Z,2.72
2022-11-28T19:50:30.617Z,2.08
2022-11-28T19:52:58.642Z,1.98
2022-11-28T19:55:26.843Z,1.85
2022-11-28T19:57:54.940Z,3.08
2022-11-28T20:00:25.126Z,2.28
2022-11-28T20:02:53.227Z,2.22
2022-11-28T20:05:21.303Z,1.65
2022-11-28T20:07:52.180Z,2.20
2022-11-28T20:10:24.337Z,2.25
2022-11-28T20:12:54.477Z,2.05
2022-11-28T20:15:23.224Z,2.03
2022-11-28T20:17:51.232Z,1.50
2022-11-28T20:20:19.882Z,1.42
2022-11-28T20:22:48.746Z,2.17
2022-11-28T20:25:20.774Z,1.90
2022-11-28T20:27:51.306Z,1.98
2022-11-28T20:30:19.457Z,2.40
2022-11-28T20:32:48.175Z,2.10
2022-11-28T20:35:18.200Z,1.98
2022-11-28T20:37:46.353Z,3.03
2022-11-28T20:40:14.790Z,2.30
2022-11-28T20:42:42.913Z,2.20
2022-11-28T20:45:11.396Z,2.00
2022-11-28T20:47:39.529Z,2.58
2022-11-28T20:50:08.183Z,2.17
2022-11-28T20:52:36.143Z,1.88
2022-11-28T20:55:41.739Z,2.08
2022-11-28T20:58:09.793Z,2.78
2022-11-28T21:00:37.748Z,2.50
2022-11-28T21:03:05.795Z,2.15
2022-11-28T21:05:36.836Z,2.92
2022-11-28T21:08:05.146Z,2.03
2022-11-28T21:10:33.885Z,2.08
2022-11-28T21:13:01.969Z,2.20
2022-11-28T21:18:35.994Z,2.67
2022-11-28T21:21:09.684Z,3.10
2022-11-28T21:23:38.626Z,2.03
2022-11-28T21:26:09.858Z,2.85
2022-11-28T21:28:39.577Z,2.53
2022-11-28T21:33:57.018Z,1.90
2022-11-28T21:36:26.355Z,2.67
2022-11-28T21:38:58.632Z,2.33
2022-11-28T21:41:31.918Z,2.65
2022-11-28T21:44:01.034Z,2.55
2022-11-28T21:46:29.304Z,2.10
2022-11-28T21:49:16.300Z,2.05
2022-11-28T21:51:44.315Z,3.25
2022-11-28T21:54:12.725Z,2.20
2022-11-28T21:56:41.133Z,3.25
2022-11-28T21:59:09.353Z,2.50
2022-11-28T22:01:37.602Z,2.35
2022-11-28T22:04:06.630Z,2.65
2022-11-28T22:06:34.762Z,2.28
2022-11-28T22:11:53.954Z,2.40
2022-11-28T22:14:21.905Z,2.95
2022-11-28T22:16:50.026Z,2.35
2022-11-28T22:19:18.763Z,2.83
2022-11-28T22:21:52.316Z,2.72
2022-11-28T22:24:24.017Z,2.70
2022-11-28T22:26:53.287Z,2.03
2022-11-28T22:29:21.499Z,1.83
2022-11-28T22:31:50.074Z,1.50
2022-11-28T22:34:19.486Z,2.05
2022-11-28T22:36:47.580Z,1.48
2022-11-28T22:39:15.665Z,1.40
2022-11-28T22:41:43.756Z,1.15
2022-11-28T22:44:12.299Z,1.33
2022-11-28T22:46:40.361Z,1.88
2022-11-28T22:49:45.838Z,1.33
2022-11-28T22:52:13.889Z,1.52
2022-11-28T22:54:42.192Z,1.63
2022-11-28T22:57:10.371Z,1.55
2022-11-28T22:59:57.180Z,1.45
2022-11-28T23:02:25.371Z,1.70
2022-11-28T23:04:54.096Z,1.35
2022-11-28T23:07:22.283Z,2.08
2022-11-28T23:09:51.727Z,1.88
2022-11-28T23:12:19.867Z,1.88
2022-11-28T23:14:49.320Z,2.13
2022-11-28T23:17:17.314Z,1.95
2022-11-28T23:19:45.451Z,1.58
2022-11-28T23:22:13.769Z,1.33
2022-11-28T23:24:42.082Z,1.77
2022-11-28T23:27:10.526Z,1.83
2022-11-28T23:29:40.301Z,2.67
2022-11-28T23:32:08.798Z,1.88
2022-11-28T23:34:36.807Z,1.80
2022-11-28T23:37:04.807Z,1.80
2022-11-28T23:39:32.837Z,1.42
2022-11-28T23:42:05.085Z,1.60
2022-11-28T23:44:33.116Z,1.70
2022-11-28T23:47:01.223Z,1.38
2022-11-28T23:49:29.283Z,1.45
2022-11-28T23:51:57.386Z,1.50
2022-11-28T23:54:25.410Z,1.60
2022-11-28T23:56:53.377Z,1.48
2022-11-28T23:59:21.472Z,1.75
